createdAt,value
2023-03-23T15:59:12.247Z,20.67
2023-03-23T16:01:13.860Z,20.66
2023-03-23T16:03:15.468Z,20.64
2023-03-23T16:05:16.807Z,20.62
2023-03-23T16:07:18.106Z,20.59
2023-03-23T16:09:19.445Z,20.56
2023-03-23T16:11:21.022Z,20.55
2023-03-23T16:13:23.575Z,20.53
2023-03-23T16:15:24.924Z,21.00
2023-03-23T16:17:26.427Z,21.37
2023-03-23T16:19:27.954Z,21.69
2023-03-23T16:21:29.298Z,21.91
2023-03-23T16:23:30.630Z,22.07
2023-03-23T16:25:32.154Z,22.32
2023-03-23T16:27:33.461Z,22.37
2023-03-23T16:31:41.821Z,22.22
2023-03-23T16:33:43.153Z,22.21
2023-03-23T16:35:44.620Z,22.18
2023-03-23T16:37:46.232Z,22.31
2023-03-23T16:39:47.564Z,22.41
2023-03-23T16:41:48.897Z,22.31
2023-03-23T16:43:50.234Z,22.25
2023-03-23T16:45:51.783Z,22.20
2023-03-23T16:47:55.848Z,22.51
2023-03-23T16:49:57.194Z,22.98
2023-03-23T16:51:58.644Z,22.68
2023-03-23T16:53:59.944Z,22.51
2023-03-23T16:56:01.251Z,22.47
2023-03-23T17:00:08.091Z,22.45
2023-03-23T17:02:09.385Z,22.45
2023-03-23T17:04:11.319Z,22.43
2023-03-23T17:06:12.660Z,22.42
2023-03-23T17:08:13.992Z,22.36
2023-03-23T17:10:15.300Z,22.35
2023-03-23T17:12:16.639Z,22.08
2023-03-23T17:14:18.076Z,21.99
2023-03-23T17:16:19.431Z,22.40
2023-03-23T17:18:21.090Z,22.59
2023-03-23T17:20:22.471Z,22.42
2023-03-23T17:22:23.791Z,22.35
2023-03-23T17:24:25.124Z,21.85
2023-03-23T17:26:26.498Z,21.52
2023-03-23T17:28:27.900Z,21.32
2023-03-23T17:30:29.214Z,21.18
2023-03-23T17:32:30.569Z,21.42
2023-03-23T17:34:32.588Z,21.78
2023-03-23T17:36:33.925Z,22.11
2023-03-23T17:38:35.443Z,22.24
2023-03-23T17:40:36.745Z,22.32
2023-03-23T17:42:38.110Z,22.31
2023-03-23T17:44:39.462Z,22.42
2023-03-23T17:46:41.062Z,21.52
2023-03-23T17:48:42.403Z,22.46
2023-03-23T17:50:43.712Z,22.31
2023-03-23T17:52:45.362Z,22.37
2023-03-23T17:54:47.107Z,22.45
2023-03-23T17:56:48.585Z,22.14
2023-03-23T17:58:49.893Z,22.04
2023-03-23T18:00:57.636Z,21.99
2023-03-23T18:02:59.033Z,21.75
2023-03-23T18:05:00.554Z,21.40
2023-03-23T18:07:02.214Z,21.32
2023-03-23T18:09:04.635Z,21.51
2023-03-23T18:11:05.970Z,21.63
2023-03-23T18:13:07.289Z,21.69
2023-03-23T18:15:08.961Z,21.73
2023-03-23T18:17:10.360Z,21.69
2023-03-23T18:19:11.690Z,21.05
2023-03-23T18:21:13.013Z,21.44
2023-03-23T18:23:14.349Z,21.68
2023-03-23T18:25:15.769Z,21.80
2023-03-23T18:27:19.980Z,22.23
2023-03-23T18:29:21.271Z,22.12
2023-03-23T18:31:22.771Z,22.05
2023-03-23T18:33:25.814Z,22.08
2023-03-23T18:35:27.255Z,22.09
2023-03-23T18:37:28.764Z,22.05
2023-03-23T18:39:32.096Z,22.13
2023-03-23T18:41:33.424Z,22.13
2023-03-23T18:43:34.839Z,22.06
2023-03-23T18:45:36.233Z,22.07
2023-03-23T18:47:38.848Z,22.08
2023-03-23T18:49:40.310Z,22.12
2023-03-23T18:51:41.633Z,22.15
2023-03-23T18:53:42.919Z,21.77
2023-03-23T18:55:44.843Z,21.82
2023-03-23T18:57:46.289Z,21.99
2023-03-23T18:59:47.619Z,22.07
2023-03-23T19:01:49.740Z,22.06
2023-03-23T19:03:51.094Z,22.25
2023-03-23T19:05:52.598Z,22.20
2023-03-23T19:07:54.313Z,22.14
2023-03-23T19:09:55.900Z,22.10
2023-03-23T19:11:57.441Z,22.02
2023-03-23T19:14:03.090Z,21.96
2023-03-23T19:16:05.199Z,21.96
2023-03-23T19:18:09.619Z,21.94
2023-03-23T19:20:14.536Z,21.91
2023-03-23T19:22:20.906Z,21.43
2023-03-23T19:24:22.882Z,21.10
2023-03-23T19:26:24.404Z,21.32
2023-03-23T19:30:32.652Z,20.99
2023-03-23T19:32:33.990Z,20.94
2023-03-23T19:34:37.112Z,21.23
2023-03-23T19:36:39.460Z,21.43
2023-03-23T19:38:41.042Z,21.60
2023-03-23T19:40:42.876Z,21.68
2023-03-23T19:42:44.229Z,21.70
2023-03-23T19:44:49.005Z,21.78
2023-03-23T19:46:50.647Z,21.86
2023-03-23T19:48:52.478Z,21.84
2023-03-23T19:50:55.981Z,21.87
2023-03-23T19:52:59.250Z,21.87
2023-03-23T19:55:01.764Z,21.87
2023-03-23T19:57:03.708Z,21.53
2023-03-23T19:59:05.187Z,21.32
2023-03-23T20:01:09.862Z,21.18
2023-03-23T20:03:11.397Z,21.09
2023-03-23T20:05:12.979Z,21.06
2023-03-23T20:07:14.387Z,21.03
2023-03-23T20:09:15.736Z,21.37
2023-03-23T20:11:17.198Z,21.70
2023-03-23T20:13:18.766Z,21.86
2023-03-23T20:15:20.568Z,21.95
2023-03-23T20:17:21.871Z,21.99
2023-03-23T20:19:23.538Z,22.02
2023-03-23T20:21:25.748Z,22.10
2023-03-23T20:23:27.041Z,22.13
2023-03-23T20:25:29.255Z,22.16
2023-03-23T20:27:31.107Z,22.13
2023-03-23T20:29:33.568Z,22.64
2023-03-23T20:31:36.651Z,22.35
2023-03-23T20:33:38.173Z,22.24
2023-03-23T20:35:40.244Z,22.20
2023-03-23T20:37:41.654Z,22.17
2023-03-23T20:39:43.008Z,22.31
2023-03-23T20:41:44.327Z,22.18
2023-03-23T20:43:45.887Z,21.76
2023-03-23T20:45:47.421Z,21.53
2023-03-23T20:47:48.794Z,21.72
2023-03-23T20:49:53.371Z,21.94
2023-03-23T20:51:55.441Z,22.45
2023-03-23T20:53:56.826Z,22.39
2023-03-23T20:55:58.281Z,22.26
2023-03-23T20:57:59.595Z,22.18
2023-03-23T21:00:05.110Z,22.17
2023-03-23T21:02:07.858Z,22.21
2023-03-23T21:04:14.784Z,22.43
2023-03-23T21:06:16.688Z,22.44
2023-03-23T21:08:18.857Z,22.17
2023-03-23T21:10:22.751Z,22.02
2023-03-23T21:12:24.073Z,22.05
2023-03-23T21:14:25.525Z,22.16
2023-03-23T21:16:26.855Z,22.16
2023-03-23T21:18:28.379Z,22.33
2023-03-23T21:20:29.706Z,22.21
2023-03-23T21:22:30.996Z,22.20
2023-03-23T21:24:32.894Z,22.14
2023-03-23T21:26:34.338Z,22.00
2023-03-23T21:28:35.665Z,21.62
2023-03-23T21:30:36.961Z,21.45
2023-03-23T21:32:38.283Z,21.68
2023-03-23T21:34:39.660Z,21.83
2023-03-23T21:36:41.194Z,21.36
2023-03-23T21:38:42.637Z,22.06
2023-03-23T21:40:44.127Z,21.83
2023-03-23T21:42:45.574Z,21.54
2023-03-23T21:44:49.787Z,21.35
2023-03-23T21:46:52.493Z,21.20
2023-03-23T21:48:53.944Z,20.26
2023-03-23T21:50:55.251Z,21.10
2023-03-23T21:52:56.556Z,21.05
2023-03-23T21:54:59.457Z,21.02
2023-03-23T21:57:02.253Z,20.99
2023-03-23T21:59:04.715Z,20.97
2023-03-23T22:01:06.171Z,20.96
2023-03-23T22:03:08.513Z,20.95
2023-03-23T22:05:10.555Z,20.94
2023-03-23T22:07:12.648Z,20.93
2023-03-23T22:09:13.956Z,20.94
2023-03-23T22:11:15.597Z,20.93
2023-03-23T22:13:19.663Z,20.93
2023-03-23T22:15:27.642Z,20.94
2023-03-23T22:17:31.752Z,20.92
2023-03-23T22:19:33.127Z,20.91
2023-03-23T22:21:34.515Z,20.88
2023-03-23T22:23:35.888Z,20.87
2023-03-23T22:25:37.240Z,20.88
2023-03-23T22:27:38.576Z,20.90
2023-03-23T22:29:39.951Z,20.89
2023-03-23T22:31:41.448Z,20.92
2023-03-23T22:33:42.795Z,20.94
2023-03-23T22:35:45.152Z,20.96
2023-03-23T22:37:48.107Z,21.01
2023-03-23T22:39:49.506Z,21.05
2023-03-23T22:41:50.898Z,21.09
2023-03-23T22:43:52.216Z,21.11
2023-03-23T22:45:53.538Z,21.11
2023-03-23T22:47:55.092Z,21.10
2023-03-23T22:49:56.456Z,21.08
2023-03-23T22:51:57.768Z,21.09
2023-03-23T22:53:59.150Z,21.07
2023-03-23T22:56:02.264Z,21.07
2023-03-23T22:58:03.595Z,21.07
2023-03-23T23:00:14.091Z,21.08
2023-03-23T23:02:15.661Z,21.07
2023-03-23T23:04:17.650Z,21.05
2023-03-23T23:06:18.980Z,21.05
2023-03-23T23:08:20.565Z,21.06
2023-03-23T23:10:22.315Z,21.03
2023-03-23T23:12:24.247Z,21.03
2023-03-23T23:14:25.888Z,21.03
2023-03-23T23:16:27.788Z,21.05
2023-03-23T23:18:30.381Z,21.05
2023-03-23T23:20:31.791Z,21.01
2023-03-23T23:22:33.101Z,21.09
2023-03-23T23:24:34.426Z,20.92
2023-03-23T23:26:36.628Z,20.87
2023-03-23T23:28:37.972Z,20.87
2023-03-23T23:30:39.349Z,20.88
2023-03-23T23:32:42.846Z,20.86
2023-03-23T23:34:44.268Z,20.85
2023-03-23T23:36:45.739Z,20.83
2023-03-23T23:38:47.079Z,20.83
2023-03-23T23:40:48.524Z,20.83
2023-03-23T23:42:49.930Z,20.84
2023-03-23T23:44:51.259Z,20.87
2023-03-23T23:46:52.665Z,20.87
2023-03-23T23:48:54.130Z,20.87
2023-03-23T23:50:55.467Z,20.84
2023-03-23T23:52:58.689Z,20.83
2023-03-23T23:55:00.043Z,20.81
2023-03-23T23:57:01.452Z,20.78
2023-03-23T23:59:02.939Z,20.77
